Time;durP1;ratioP1;P1;durP2;ratioP2;P2;SDS_P1;SDS_P2;PMS_P1;PMS_P2;Temp;Humidity;BMP_temperature;BMP_pressure;BME280_temperature;BME280_humidity;BME280_pressure;Samples;Min_cycle;Max_cycle;Signal;HPM_P1;HPM_P2
2021/01/21 00:01:22;;;;;;;62.40;7.82;;;3.40;1.00;;;;;;5093855;28;20204;-67
2021/01/21 00:03:49;;;;;;;66.03;8.85;;;3.30;1.00;;;;;;5093575;28;20274;-67
2021/01/21 00:06:15;;;;;;;67.05;9.45;;;;;;;;;;5093631;28;20205;-67
2021/01/21 00:08:42;;;;;;;62.92;7.47;;;3.40;1.00;;;;;;5093754;28;20235;-68
2021/01/21 00:11:08;;;;;;;61.40;8.77;;;3.40;1.00;;;;;;5093583;28;20204;-67
2021/01/21 00:13:35;;;;;;;65.75;8.82;;;3.20;1.00;;;;;;5093288;28;20259;-68
2021/01/21 00:16:01;;;;;;;62.85;7.63;;;3.20;1.00;;;;;;5093507;28;20252;-68
2021/01/21 00:18:28;;;;;;;63.28;7.80;;;3.40;1.00;;;;;;5093483;28;20276;-68
2021/01/21 00:20:55;;;;;;;61.08;6.70;;;3.30;1.00;;;;;;5093386;28;20208;-68
2021/01/21 00:23:21;;;;;;;61.95;7.55;;;3.50;1.00;;;;;;5093422;28;20224;-67
2021/01/21 00:25:50;;;;;;;61.63;7.70;;;;;;;;;;5093213;28;20713;-69
2021/01/21 00:28:17;;;;;;;62.58;8.35;;;3.40;1.00;;;;;;5093196;28;20227;-68
2021/01/21 00:30:44;;;;;;;68.40;7.70;;;3.50;1.00;;;;;;5097672;28;20221;-68
2021/01/21 00:33:11;;;;;;;62.67;6.70;;;;;;;;;;5104211;28;20319;-69
2021/01/21 00:35:38;;;;;;;61.22;6.95;;;3.60;1.00;;;;;;5106531;28;20216;-69
2021/01/21 00:38:06;;;;;;;58.92;6.00;;;3.50;1.00;;;;;;5098429;28;20199;-69
2021/01/21 00:40:35;;;;;;;66.13;8.65;;;;;;;;;;5108140;28;20189;-67
2021/01/21 00:43:02;;;;;;;63.25;7.40;;;3.70;1.00;;;;;;5103549;28;20219;-70
2021/01/21 00:45:28;;;;;;;61.58;7.55;;;;;;;;;;5094140;28;20587;-68
2021/01/21 00:47:55;;;;;;;70.72;9.32;;;;;;;;;;5094062;28;20262;-69
2021/01/21 00:50:22;;;;;;;73.47;12.02;;;;;;;;;;5104763;28;20267;-69
2021/01/21 00:52:49;;;;;;;79.85;12.63;;;3.20;1.00;;;;;;5102084;28;20642;-70
2021/01/21 00:55:16;;;;;;;68.55;10.30;;;3.70;1.00;;;;;;5099410;28;20272;-68
2021/01/21 00:57:43;;;;;;;77.28;11.35;;;;;;;;;;5093787;28;20209;-69
2021/01/21 01:00:11;;;;;;;103.25;22.15;;;3.70;1.00;;;;;;5092698;28;20808;-70
2021/01/21 01:02:38;;;;;;;132.80;32.35;;;3.80;1.00;;;;;;5094833;28;20270;-70
2021/01/21 01:05:06;;;;;;;114.78;24.48;;;3.90;1.00;;;;;;5094886;28;20208;-70
2021/01/21 01:07:33;;;;;;;66.38;9.23;;;3.90;1.00;;;;;;5095728;28;20214;-70
2021/01/21 01:09:59;;;;;;;70.55;9.75;;;4.50;1.00;;;;;;5094428;28;20239;-70
2021/01/21 01:12:27;;;;;;;64.85;7.72;;;4.10;1.00;;;;;;5094795;28;20266;-70
2021/01/21 01:14:53;;;;;;;62.85;7.28;;;;;;;;;;5094075;28;20204;-69
2021/01/21 01:17:20;;;;;;;63.03;6.82;;;4.00;1.00;;;;;;5093983;28;20362;-70
2021/01/21 01:19:46;;;;;;;61.35;6.75;;;3.90;1.00;;;;;;5093662;28;20290;-70
2021/01/21 01:22:13;;;;;;;62.50;8.00;;;4.00;1.00;;;;;;5093286;28;20291;-70
2021/01/21 01:24:39;;;;;;;59.78;6.63;;;4.10;1.00;;;;;;5093323;28;20204;-70
2021/01/21 01:27:07;;;;;;;60.63;6.40;;;3.30;1.00;;;;;;5093396;28;20287;-69
2021/01/21 01:29:35;;;;;;;62.47;6.28;;;3.50;1.00;;;;;;5093100;28;20232;-70
2021/01/21 01:32:01;;;;;;;61.83;6.07;;;4.10;1.00;;;;;;5092986;28;20205;-70
2021/01/21 01:34:27;;;;;;;60.50;6.28;;;4.00;1.00;;;;;;5092916;28;20897;-70
2021/01/21 01:36:54;;;;;;;61.47;6.45;;;;;;;;;;5090990;28;20330;-69
2021/01/21 01:39:21;;;;;;;60.90;6.32;;;;;;;;;;5091944;28;20619;-70
2021/01/21 01:41:47;;;;;;;59.60;6.20;;;4.10;1.00;;;;;;5092146;28;20303;-70
2021/01/21 01:44:14;;;;;;;62.42;6.65;;;4.30;1.00;;;;;;5091784;28;20605;-69
2021/01/21 01:46:41;;;;;;;62.67;6.85;;;4.30;1.00;;;;;;5092051;28;20208;-69
2021/01/21 01:49:08;;;;;;;60.45;6.70;;;;;;;;;;5091999;28;20231;-70
2021/01/21 01:51:36;;;;;;;60.92;6.75;;;4.50;1.00;;;;;;5092097;28;20208;-70
2021/01/21 01:54:04;;;;;;;62.85;6.20;;;5.60;1.00;;;;;;5091717;28;20240;-69
2021/01/21 01:56:31;;;;;;;62.00;7.68;;;4.10;1.00;;;;;;5091968;28;20207;-70
2021/01/21 01:58:58;;;;;;;60.20;6.20;;;4.30;1.00;;;;;;5092275;28;20291;-70
2021/01/21 02:01:25;;;;;;;59.85;5.90;;;4.30;1.00;;;;;;5091995;28;20219;-70
2021/01/21 02:03:52;;;;;;;59.33;5.65;;;4.30;1.00;;;;;;5091608;28;20231;-70
2021/01/21 02:06:18;;;;;;;59.50;5.93;;;4.30;1.00;;;;;;5091798;28;20204;-68
2021/01/21 02:08:45;;;;;;;58.58;5.32;;;4.40;1.00;;;;;;5090367;28;20567;-70
2021/01/21 02:11:25;;;;;;;57.38;4.15;;;4.50;1.00;;;;;;5091577;28;20231;-70
2021/01/21 02:14:01;;;;;;;57.78;4.07;;;4.50;1.00;;;;;;5091582;28;20243;-70
2021/01/21 02:16:39;;;;;;;58.95;4.28;;;4.70;1.00;;;;;;5091779;28;20203;-69
2021/01/21 02:19:46;;;;;;;58.63;4.85;;;4.80;1.00;;;;;;5095404;28;20574;-69
2021/01/21 02:22:48;;;;;;;59.63;5.40;;;4.90;1.00;;;;;;5095505;28;20227;-69
2021/01/21 02:25:18;;;;;;;59.20;3.83;;;5.10;1.00;;;;;;5095559;28;20687;-69
2021/01/21 02:28:16;;;;;;;58.08;3.85;;;5.20;1.00;;;;;;5095063;28;20215;-69
2021/01/21 02:30:56;;;;;;;60.00;4.53;;;5.40;1.00;;;;;;5095721;28;20353;-69
2021/01/21 02:33:53;;;;;;;57.15;3.70;;;5.50;1.00;;;;;;5095404;28;20219;-69
2021/01/21 02:36:23;;;;;;;57.30;3.55;;;5.80;1.00;;;;;;5095291;28;20208;-69
2021/01/21 02:38:52;;;;;;;56.63;3.05;;;6.00;1.00;;;;;;5095518;28;20576;-69
2021/01/21 02:41:19;;;;;;;56.55;3.00;;;6.30;1.00;;;;;;5094079;28;20315;-69
2021/01/21 02:43:51;;;;;;;56.92;2.55;;;6.50;1.00;;;;;;5094833;28;20231;-69
2021/01/21 02:46:17;;;;;;;56.25;2.67;;;6.90;1.00;;;;;;5095207;28;20265;-69
2021/01/21 02:48:44;;;;;;;56.58;2.80;;;7.40;1.00;;;;;;5094990;28;20240;-69
2021/01/21 02:51:18;;;;;;;55.87;2.40;;;7.80;1.00;;;;;;5095340;28;20266;-69
2021/01/21 02:53:51;;;;;;;55.70;2.50;;;8.40;1.00;;;;;;5094859;28;20521;-68
2021/01/21 02:56:21;;;;;;;56.27;2.50;;;9.20;1.00;;;;;;5095124;28;20921;-69
2021/01/21 02:58:50;;;;;;;56.57;2.63;;;9.60;1.00;;;;;;5094880;28;20444;-69
2021/01/21 03:01:17;;;;;;;56.10;2.33;;;9.80;1.00;;;;;;5094821;28;20452;-68
2021/01/21 03:03:47;;;;;;;56.40;2.60;;;9.70;1.00;;;;;;5094864;28;20905;-68
2021/01/21 03:06:16;;;;;;;56.40;2.80;;;9.60;1.00;;;;;;5095107;28;20998;-68
2021/01/21 03:08:43;;;;;;;56.67;2.50;;;9.50;1.00;;;;;;5094859;28;20511;-68
2021/01/21 03:11:10;;;;;;;56.83;2.70;;;9.50;1.00;;;;;;5093198;28;20456;-69
2021/01/21 03:14:01;;;;;;;59.10;2.83;;;9.60;1.00;;;;;;5094271;28;20472;-69
2021/01/21 03:16:27;;;;;;;57.07;3.00;;;9.60;1.00;;;;;;5094585;28;20453;-69
2021/01/21 03:18:54;;;;;;;56.33;2.50;;;9.60;1.00;;;;;;5094519;28;20448;-69
2021/01/21 03:21:27;;;;;;;55.57;2.50;;;9.60;1.00;;;;;;5094602;28;20537;-69
2021/01/21 03:23:53;;;;;;;55.57;2.50;;;9.60;1.00;;;;;;5094278;28;20467;-69
2021/01/21 03:26:20;;;;;;;56.47;2.40;;;9.70;1.00;;;;;;5094369;28;20510;-69
2021/01/21 03:28:46;;;;;;;56.00;2.50;;;9.70;1.00;;;;;;5094352;28;20485;-69
2021/01/21 03:31:12;;;;;;;56.77;2.60;;;9.80;1.00;;;;;;5094260;28;20455;-69
2021/01/21 03:33:39;;;;;;;55.90;2.30;;;9.80;1.00;;;;;;5094193;28;20475;-69
2021/01/21 03:36:06;;;;;;;55.97;2.67;;;9.90;1.00;;;;;;5094274;28;20503;-69
2021/01/21 03:38:33;;;;;;;56.60;2.40;;;10.00;1.00;;;;;;5094215;28;20514;-69
2021/01/21 03:40:59;;;;;;;57.97;2.67;;;10.10;1.00;;;;;;5094105;28;20544;-69
2021/01/21 03:43:26;;;;;;;55.30;2.30;;;10.10;1.00;;;;;;5093005;28;20497;-69
2021/01/21 03:45:52;;;;;;;56.20;2.70;;;10.10;1.00;;;;;;5094129;28;20484;-69
2021/01/21 03:48:18;;;;;;;56.67;2.67;;;10.10;1.00;;;;;;5094084;28;20538;-69
2021/01/21 03:50:45;;;;;;;56.73;2.93;;;10.20;1.00;;;;;;5093954;28;20515;-69
2021/01/21 03:53:11;;;;;;;56.10;2.73;;;10.20;1.00;;;;;;5093558;28;20855;-69
2021/01/21 03:55:38;;;;;;;56.10;2.70;;;10.10;1.00;;;;;;5095654;28;20448;-70
2021/01/21 03:58:05;;;;;;;67.90;4.23;;;10.10;1.00;;;;;;5097456;28;20460;-70
2021/01/21 04:00:31;;;;;;;59.90;3.20;;;10.10;1.00;;;;;;5098591;28;20461;-69
2021/01/21 04:02:57;;;;;;;56.50;2.40;;;10.00;1.00;;;;;;5098704;28;20530;-70
2021/01/21 04:05:24;;;;;;;57.20;2.90;;;9.90;1.00;;;;;;5102223;28;20476;-70
2021/01/21 04:07:50;;;;;;;58.23;2.47;;;9.90;1.00;;;;;;5098697;28;20453;-70
2021/01/21 04:10:17;;;;;;;56.47;3.30;;;9.90;1.00;;;;;;5096769;28;20539;-70
2021/01/21 04:12:44;;;;;;;56.47;2.93;;;9.90;1.00;;;;;;5098356;28;20474;-69
2021/01/21 04:15:18;;;;;;;56.17;2.67;;;9.90;1.00;;;;;;5101606;28;20456;-69
2021/01/21 04:17:44;;;;;;;58.43;3.07;;;9.90;1.00;;;;;;5100889;28;20897;-70
2021/01/21 04:20:12;;;;;;;56.30;2.93;;;9.90;1.00;;;;;;5098233;28;20516;-70
2021/01/21 04:22:38;;;;;;;56.70;3.00;;;9.90;1.00;;;;;;5098805;28;20562;-69
2021/01/21 04:25:05;;;;;;;57.23;3.00;;;9.80;1.00;;;;;;5096205;28;20966;-70
2021/01/21 04:27:31;;;;;;;57.70;3.70;;;9.70;1.00;;;;;;5096142;28;20435;-70
2021/01/21 04:29:59;;;;;;;56.30;2.47;;;9.70;1.00;;;;;;5096708;28;20497;-70
2021/01/21 04:32:25;;;;;;;56.40;2.87;;;9.60;1.00;;;;;;5096490;28;20972;-70
2021/01/21 04:34:51;;;;;;;58.53;3.80;;;9.60;1.00;;;;;;5097662;28;20530;-70
2021/01/21 04:37:18;;;;;;;57.40;2.90;;;9.60;1.00;;;;;;5098172;28;20522;-71
2021/01/21 04:39:44;;;;;;;56.17;2.80;;;9.60;1.00;;;;;;5097114;28;20643;-70
2021/01/21 04:42:10;;;;;;;56.57;3.13;;;9.70;1.00;;;;;;5096630;28;20506;-69
2021/01/21 04:44:37;;;;;;;56.77;3.10;;;9.70;1.00;;;;;;5096299;28;20518;-70
2021/01/21 04:47:05;;;;;;;56.93;2.63;;;9.70;1.00;;;;;;5097804;28;20454;-71
2021/01/21 04:49:33;;;;;;;57.93;3.20;;;9.70;1.00;;;;;;5098084;28;20537;-70
2021/01/21 04:52:03;;;;;;;56.93;2.80;;;9.80;1.00;;;;;;5094893;28;20449;-70
2021/01/21 04:54:37;;;;;;;55.80;2.30;;;9.80;1.00;;;;;;5095805;28;20555;-70
2021/01/21 04:57:04;;;;;;;55.77;2.90;;;9.70;1.00;;;;;;5098829;28;20449;-70
2021/01/21 04:59:35;;;;;;;56.50;2.50;;;9.70;1.00;;;;;;5093224;28;20437;-69
2021/01/21 05:02:04;;;;;;;57.10;2.57;;;9.80;1.00;;;;;;5092420;28;20449;-68
2021/01/21 05:04:31;;;;;;;56.43;2.43;;;9.80;1.00;;;;;;5092430;28;20462;-67
2021/01/21 05:06:58;;;;;;;58.00;3.00;;;9.90;1.00;;;;;;5092603;28;20545;-68
2021/01/21 05:09:24;;;;;;;56.00;2.40;;;10.00;1.00;;;;;;5092319;28;20478;-68
2021/01/21 05:11:51;;;;;;;58.30;2.70;;;10.00;1.00;;;;;;5092245;28;20446;-68
2021/01/21 05:14:17;;;;;;;57.37;2.93;;;10.10;1.00;;;;;;5092065;28;20469;-68
2021/01/21 05:16:44;;;;;;;60.00;2.40;;;10.10;1.00;;;;;;5091059;28;20463;-68
2021/01/21 05:19:14;;;;;;;55.53;2.27;;;10.20;1.00;;;;;;5092490;28;20507;-68
2021/01/21 05:21:40;;;;;;;56.60;2.40;;;10.30;1.00;;;;;;5092289;28;20578;-68
2021/01/21 05:24:08;;;;;;;57.07;2.70;;;10.30;1.00;;;;;;5092255;28;20473;-67
2021/01/21 05:26:34;;;;;;;58.03;3.20;;;10.30;1.00;;;;;;5092433;28;20441;-68
2021/01/21 05:29:01;;;;;;;56.97;2.60;;;10.30;1.00;;;;;;5099325;28;20474;-71
2021/01/21 05:31:28;;;;;;;56.70;2.50;;;10.30;1.00;;;;;;5111717;28;20450;-68
2021/01/21 05:33:55;;;;;;;56.07;2.47;;;10.20;1.00;;;;;;5107976;28;20873;-69
2021/01/21 05:36:23;;;;;;;57.03;2.70;;;10.20;1.00;;;;;;5105476;28;20530;-68
2021/01/21 05:38:57;;;;;;;56.33;2.50;;;10.20;1.00;;;;;;5103762;28;20485;-69
2021/01/21 05:41:27;;;;;;;55.40;2.30;;;10.30;1.00;;;;;;5103342;28;20454;-69
2021/01/21 05:43:54;;;;;;;57.13;2.50;;;10.40;1.00;;;;;;5103990;28;20493;-70
2021/01/21 05:46:21;;;;;;;56.63;2.70;;;10.50;1.00;;;;;;5094639;28;20449;-70
2021/01/21 05:48:47;;;;;;;56.67;2.50;;;10.50;1.00;;;;;;5093361;28;20469;-70
2021/01/21 05:51:15;;;;;;;55.63;2.17;;;10.60;1.00;;;;;;5092925;28;21005;-70
2021/01/21 05:53:42;;;;;;;57.70;2.57;;;10.70;1.00;;;;;;5105195;28;20512;-70
2021/01/21 05:56:10;;;;;;;57.20;2.80;;;10.80;1.00;;;;;;5109452;28;20450;-70
2021/01/21 05:58:37;;;;;;;55.40;2.17;;;10.80;1.00;;;;;;5108692;28;20445;-70
2021/01/21 06:01:06;;;;;;;55.77;2.30;;;10.80;1.00;;;;;;5109981;28;20450;-71
2021/01/21 06:03:34;;;;;;;55.93;2.23;;;10.80;1.00;;;;;;5108252;28;20489;-70
2021/01/21 06:06:04;;;;;;;57.10;2.60;;;10.90;1.00;;;;;;5109411;28;20492;-70
2021/01/21 06:08:30;;;;;;;57.20;2.40;;;10.80;1.00;;;;;;5108459;28;20474;-70
2021/01/21 06:10:58;;;;;;;56.90;2.40;;;10.80;1.00;;;;;;5109378;28;20454;-70
2021/01/21 06:13:25;;;;;;;57.50;2.60;;;10.90;1.00;;;;;;5108329;28;20482;-70
2021/01/21 06:15:53;;;;;;;57.00;2.50;;;11.00;1.00;;;;;;5100898;28;20491;-70
2021/01/21 06:18:19;;;;;;;55.60;2.20;;;11.00;1.00;;;;;;5094391;28;20986;-70
2021/01/21 06:20:45;;;;;;;57.33;2.43;;;11.00;1.00;;;;;;5110063;28;20443;-70
2021/01/21 06:23:18;;;;;;;60.50;2.20;;;11.00;1.00;;;;;;5107280;28;20477;-70
2021/01/21 06:25:45;;;;;;;55.90;2.60;;;11.00;1.00;;;;;;5107016;28;20445;-70
2021/01/21 06:28:13;;;;;;;55.90;2.70;;;11.00;1.00;;;;;;5102675;28;20479;-70
2021/01/21 06:30:40;;;;;;;56.87;2.50;;;11.10;1.00;;;;;;5102500;28;20540;-69
2021/01/21 06:33:08;;;;;;;56.00;2.50;;;11.30;1.00;;;;;;5101940;28;20517;-70
2021/01/21 06:35:36;;;;;;;56.57;2.27;;;11.30;1.00;;;;;;5100187;28;20505;-69
2021/01/21 06:38:06;;;;;;;57.87;2.30;;;11.40;1.00;;;;;;5097292;28;20627;-70
2021/01/21 06:40:34;;;;;;;55.80;2.33;;;11.50;1.00;;;;;;5093593;28;20464;-70
2021/01/21 06:43:05;;;;;;;57.07;2.17;;;11.50;1.00;;;;;;5091873;28;20462;-69
2021/01/21 06:45:34;;;;;;;58.70;2.33;;;11.60;1.00;;;;;;5091866;28;20474;-69
2021/01/21 06:48:00;;;;;;;55.60;2.20;;;11.60;1.00;;;;;;5092210;28;20478;-70
2021/01/21 06:50:30;;;;;;;57.97;2.47;;;11.50;1.00;;;;;;5092270;28;20512;-69
2021/01/21 06:53:04;;;;;;;55.57;2.10;;;11.50;1.00;;;;;;5094304;28;20481;-69
2021/01/21 06:55:35;;;;;;;57.00;2.40;;;11.50;1.00;;;;;;5092542;28;20450;-69
2021/01/21 06:58:01;;;;;;;55.80;2.10;;;11.50;1.00;;;;;;5092380;28;20813;-69
2021/01/21 07:00:42;;;;;;;55.43;2.13;;;11.50;1.00;;;;;;5092237;28;20528;-69
2021/01/21 07:03:24;;;;;;;56.30;2.50;;;11.50;1.00;;;;;;5091689;28;20475;-69
2021/01/21 07:05:57;;;;;;;57.10;2.47;;;11.50;1.00;;;;;;5094816;28;20984;-68
2021/01/21 07:08:23;;;;;;;56.23;2.43;;;11.60;1.00;;;;;;5095062;28;20651;-68
2021/01/21 07:10:50;;;;;;;57.60;2.40;;;11.60;1.00;;;;;;5095111;28;20446;-67
2021/01/21 07:13:19;;;;;;;55.80;2.83;;;11.50;1.00;;;;;;5094591;28;20470;-68
2021/01/21 07:15:48;;;;;;;57.50;2.67;;;11.60;1.00;;;;;;5095078;28;20472;-67
2021/01/21 07:18:18;;;;;;;57.67;2.60;;;11.60;1.00;;;;;;5094829;28;20446;-68
2021/01/21 07:21:17;;;;;;;56.17;2.40;;;11.70;1.00;;;;;;5093390;28;20969;-67
2021/01/21 07:23:48;;;;;;;57.70;2.40;;;11.70;1.00;;;;;;5094476;28;20832;-67
2021/01/21 07:26:19;;;;;;;55.70;2.50;;;11.80;1.00;;;;;;5094719;28;20446;-69
2021/01/21 07:28:55;;;;;;;56.73;2.20;;;11.80;1.00;;;;;;5094384;28;20542;-69
2021/01/21 07:31:23;;;;;;;56.10;2.40;;;11.80;1.00;;;;;;5094478;28;20449;-67
2021/01/21 07:34:09;;;;;;;55.77;2.33;;;11.80;1.00;;;;;;5094295;28;20466;-67
2021/01/21 07:36:36;;;;;;;55.90;2.60;;;11.90;1.00;;;;;;5108385;28;20441;-68
2021/01/21 07:39:02;;;;;;;56.63;2.40;;;11.90;1.00;;;;;;5114064;28;20825;-69
2021/01/21 07:41:51;;;;;;;56.63;2.57;;;11.90;1.00;;;;;;5113033;28;20509;-68
2021/01/21 07:44:18;;;;;;;56.67;2.17;;;11.90;1.00;;;;;;5114469;28;20496;-68
2021/01/21 07:46:45;;;;;;;56.33;2.20;;;11.90;1.00;;;;;;5114194;28;20869;-68
2021/01/21 07:49:25;;;;;;;55.77;2.10;;;11.90;1.00;;;;;;5113339;28;20513;-70
2021/01/21 07:52:02;;;;;;;55.43;2.20;;;11.90;1.00;;;;;;5112299;28;20445;-69
2021/01/21 07:54:29;;;;;;;56.30;2.60;;;12.00;1.00;;;;;;5113117;28;20477;-67
2021/01/21 07:56:56;;;;;;;55.60;2.17;;;12.10;1.00;;;;;;5114550;28;20462;-68
2021/01/21 07:59:22;;;;;;;55.37;2.40;;;12.10;1.00;;;;;;5114507;28;20448;-68
2021/01/21 08:01:57;;;;;;;55.97;2.40;;;12.20;1.00;;;;;;5114736;28;20893;-67
2021/01/21 08:04:23;;;;;;;55.83;2.40;;;12.20;1.00;;;;;;5114577;28;20523;-69
2021/01/21 08:06:57;;;;;;;55.60;2.13;;;12.20;1.00;;;;;;5114229;28;20940;-68
2021/01/21 08:09:24;;;;;;;55.50;2.20;;;12.30;1.00;;;;;;5114273;28;20484;-68
2021/01/21 08:11:51;;;;;;;55.20;2.20;;;12.30;1.00;;;;;;5114046;28;20527;-67
2021/01/21 08:14:18;;;;;;;55.43;2.30;;;12.40;1.00;;;;;;5113924;28;20987;-69
2021/01/21 08:16:45;;;;;;;56.73;2.40;;;12.40;1.00;;;;;;5113302;28;20441;-67
2021/01/21 08:19:14;;;;;;;55.80;2.37;;;12.50;1.00;;;;;;5113958;28;20441;-68
2021/01/21 08:21:40;;;;;;;55.80;2.30;;;12.50;1.00;;;;;;5114013;28;20846;-70
2021/01/21 08:24:08;;;;;;;56.43;2.23;;;12.50;1.00;;;;;;5113664;28;20504;-68
2021/01/21 08:26:35;;;;;;;55.73;2.40;;;12.60;1.00;;;;;;5114044;28;20449;-69
2021/01/21 08:29:03;;;;;;;55.87;2.40;;;12.60;1.00;;;;;;5113776;28;21019;-67
2021/01/21 08:31:38;;;;;;;55.40;2.10;;;12.70;1.00;;;;;;5114090;28;20812;-68
2021/01/21 08:34:07;;;;;;;55.87;2.20;;;12.70;1.00;;;;;;5113630;28;20472;-68
2021/01/21 08:36:35;;;;;;;55.70;2.30;;;12.70;1.00;;;;;;5112319;28;20534;-68
2021/01/21 08:39:03;;;;;;;55.87;2.30;;;12.70;1.00;;;;;;5113928;28;20495;-67
2021/01/21 08:41:30;;;;;;;57.10;2.10;;;12.70;1.00;;;;;;5113780;28;20464;-67
2021/01/21 08:44:00;;;;;;;55.30;2.17;;;12.70;1.00;;;;;;5113692;28;20493;-69
2021/01/21 08:46:27;;;;;;;56.17;2.20;;;12.80;1.00;;;;;;5113420;28;20485;-68
2021/01/21 08:48:54;;;;;;;55.47;2.30;;;12.80;1.00;;;;;;5113435;28;20481;-68
2021/01/21 08:51:28;;;;;;;56.63;2.20;;;12.80;1.00;;;;;;5113338;28;20582;-68
2021/01/21 08:54:15;;;;;;;55.87;2.50;;;12.80;1.00;;;;;;5113024;28;20567;-70
2021/01/21 08:56:41;;;;;;;56.50;2.40;;;12.90;1.00;;;;;;5113448;28;20437;-70
2021/01/21 08:59:27;;;;;;;55.57;2.37;;;12.90;1.00;;;;;;5113359;28;20441;-67
2021/01/21 09:01:54;;;;;;;56.70;2.47;;;13.00;1.00;;;;;;5112891;28;20847;-68
2021/01/21 09:04:26;;;;;;;56.30;2.30;;;13.00;1.00;;;;;;5113165;28;20560;-68
2021/01/21 09:06:55;;;;;;;55.90;2.47;;;13.00;1.00;;;;;;5112126;28;20441;-67
2021/01/21 09:09:32;;;;;;;56.07;2.43;;;13.10;1.00;;;;;;5113047;28;20568;-68
2021/01/21 09:12:14;;;;;;;56.83;2.70;;;13.10;1.00;;;;;;5112951;28;20441;-67
2021/01/21 09:14:41;;;;;;;56.07;2.40;;;13.20;1.00;;;;;;5113327;28;20455;-67
2021/01/21 09:17:14;;;;;;;56.27;2.30;;;13.20;1.00;;;;;;5112975;28;20954;-67
2021/01/21 09:19:42;;;;;;;56.70;2.70;;;13.20;1.00;;;;;;5113108;28;20495;-67
2021/01/21 09:22:11;;;;;;;55.90;2.60;;;13.30;1.00;;;;;;5112752;28;20524;-67
2021/01/21 09:25:01;;;;;;;56.17;2.20;;;13.40;1.00;;;;;;5112697;28;20488;-69
2021/01/21 09:27:29;;;;;;;56.80;2.30;;;13.50;1.00;;;;;;5112797;28;20868;-69
2021/01/21 09:29:57;;;;;;;55.50;2.00;;;13.60;1.00;;;;;;5111557;28;20530;-67
2021/01/21 09:32:25;;;;;;;56.50;2.50;;;13.70;1.00;;;;;;5110566;28;20499;-66
2021/01/21 09:35:00;;;;;;;56.53;2.40;;;13.70;1.00;;;;;;5092657;28;20895;-67
2021/01/21 09:37:28;;;;;;;55.50;2.20;;;13.80;1.00;;;;;;5092299;28;20442;-66
2021/01/21 09:39:54;;;;;;;58.57;2.87;;;13.80;1.00;;;;;;5092183;28;20449;-68
2021/01/21 09:42:21;;;;;;;56.20;2.47;;;13.80;1.00;;;;;;5091774;28;20948;-66
2021/01/21 09:44:48;;;;;;;55.77;2.27;;;13.70;1.00;;;;;;5091919;28;20453;-66
2021/01/21 09:47:15;;;;;;;55.43;2.63;;;13.60;1.00;;;;;;5091881;28;20506;-70
2021/01/21 09:49:43;;;;;;;56.00;2.27;;;13.60;1.00;;;;;;5091573;28;20517;-67
2021/01/21 09:52:09;;;;;;;55.63;2.20;;;13.60;1.00;;;;;;5091985;28;20442;-68
2021/01/21 09:54:36;;;;;;;55.70;2.40;;;13.60;1.00;;;;;;5091947;28;20467;-68
2021/01/21 09:57:02;;;;;;;55.50;2.27;;;13.50;1.00;;;;;;5091864;28;20863;-68
2021/01/21 09:59:30;;;;;;;56.47;2.23;;;13.40;1.00;;;;;;5091890;28;20814;-68
2021/01/21 10:01:56;;;;;;;56.30;2.10;;;13.40;1.00;;;;;;5091652;28;20528;-68
2021/01/21 10:04:23;;;;;;;55.30;2.30;;;13.50;1.00;;;;;;5091592;28;20520;-68
2021/01/21 10:06:49;;;;;;;55.77;2.53;;;13.70;1.00;;;;;;5092206;28;20464;-68
2021/01/21 10:09:16;;;;;;;55.33;2.10;;;13.90;1.00;;;;;;5108013;28;20496;-69
2021/01/21 10:11:42;;;;;;;55.40;2.00;;;14.10;1.00;;;;;;5091640;28;20472;-68
2021/01/21 10:14:09;;;;;;;55.53;2.20;;;14.40;1.00;;;;;;5091536;28;20832;-68
2021/01/21 10:16:36;;;;;;;55.70;2.20;;;14.90;1.00;;;;;;5091476;28;20534;-69
2021/01/21 10:19:03;;;;;;;55.80;2.30;;;15.60;1.00;;;;;;5091551;28;20447;-68
2021/01/21 10:21:29;;;;;;;57.23;2.60;;;16.10;1.00;;;;;;5091613;28;20942;-69
2021/01/21 10:23:55;;;;;;;55.33;2.20;;;16.70;1.00;;;;;;5091482;28;20470;-68
2021/01/21 10:26:22;;;;;;;56.40;2.50;;;17.10;1.00;;;;;;5091574;28;20445;-68
2021/01/21 10:28:48;;;;;;;56.07;2.40;;;17.70;1.00;;;;;;5091738;28;20475;-70
2021/01/21 10:31:15;;;;;;;56.50;2.10;;;18.10;1.00;;;;;;5091942;28;20480;-70
2021/01/21 10:33:43;;;;;;;55.83;2.30;;;18.20;1.00;;;;;;5091352;28;20463;-69
2021/01/21 10:36:10;;;;;;;60.93;2.80;;;18.60;1.00;;;;;;5090013;28;20834;-70
2021/01/21 10:38:39;;;;;;;57.90;2.20;;;19.10;1.00;;;;;;5100660;28;21003;-70
2021/01/21 10:41:06;;;;;;;55.97;2.13;;;19.80;1.00;;;;;;5103701;28;20456;-69
2021/01/21 10:43:32;;;;;;;57.30;2.20;;;20.30;1.00;;;;;;5095619;28;20587;-68
2021/01/21 10:45:59;;;;;;;56.40;2.30;;;20.30;1.00;;;;;;5095208;28;20454;-68
2021/01/21 10:48:25;;;;;;;55.97;2.20;;;19.90;1.00;;;;;;5095253;28;20446;-68
2021/01/21 10:50:52;;;;;;;56.17;2.40;;;19.10;1.00;;;;;;5095184;28;20484;-68
2021/01/21 10:53:19;;;;;;;56.00;2.30;;;18.00;1.00;;;;;;5094814;28;20492;-68
2021/01/21 10:55:46;;;;;;;56.53;2.40;;;17.60;1.00;;;;;;5095193;28;20456;-68
2021/01/21 10:58:13;;;;;;;56.10;2.33;;;18.30;1.00;;;;;;5094958;28;20453;-68
2021/01/21 11:00:40;;;;;;;56.00;2.90;;;18.60;1.00;;;;;;5095132;28;20437;-68
2021/01/21 11:03:06;;;;;;;56.67;2.10;;;18.20;1.00;;;;;;5094902;28;20498;-68
2021/01/21 11:05:32;;;;;;;55.47;2.40;;;17.90;1.00;;;;;;5095007;28;20500;-69
2021/01/21 11:08:00;;;;;;;56.20;2.50;;;17.50;1.00;;;;;;5094322;28;20451;-68
2021/01/21 11:10:26;;;;;;;56.70;2.30;;;17.40;1.00;;;;;;5109292;28;20676;-68
2021/01/21 11:12:52;;;;;;;62.23;2.70;;;17.90;1.00;;;;;;5113875;28;20474;-69
2021/01/21 11:15:19;;;;;;;58.83;2.40;;;18.20;1.00;;;;;;5114528;28;20450;-68
2021/01/21 11:17:46;;;;;;;57.00;2.37;;;18.20;1.00;;;;;;5114383;28;20448;-69
2021/01/21 11:20:14;;;;;;;56.80;2.90;;;18.10;1.00;;;;;;5114381;28;20917;-68
2021/01/21 11:22:40;;;;;;;55.40;2.00;;;18.10;1.00;;;;;;5114583;28;20467;-68
2021/01/21 11:25:09;;;;;;;55.73;2.20;;;18.30;1.00;;;;;;5114879;28;20450;-70
2021/01/21 11:27:36;;;;;;;55.67;2.63;;;17.90;1.00;;;;;;5114821;28;20924;-67
2021/01/21 11:30:03;;;;;;;56.23;2.40;;;17.30;1.00;;;;;;5115068;28;20774;-67
2021/01/21 11:32:30;;;;;;;59.50;2.80;;;16.90;1.00;;;;;;5114729;28;20527;-68
2021/01/21 11:34:56;;;;;;;56.23;2.17;;;16.90;1.00;;;;;;5115258;28;20533;-68
2021/01/21 11:37:22;;;;;;;55.53;2.30;;;17.10;1.00;;;;;;5120635;28;20438;-70
2021/01/21 11:39:49;;;;;;;56.17;2.37;;;17.20;1.00;;;;;;5118387;28;20444;-69
2021/01/21 11:42:16;;;;;;;57.10;2.30;;;17.60;1.00;;;;;;5121805;28;20458;-70
2021/01/21 11:44:42;;;;;;;55.70;2.10;;;18.10;1.00;;;;;;5118720;28;20538;-70
2021/01/21 11:47:08;;;;;;;55.87;2.13;;;17.90;1.00;;;;;;5120286;28;20529;-69
2021/01/21 11:49:35;;;;;;;56.77;2.50;;;17.60;1.00;;;;;;5119415;28;20581;-68
2021/01/21 11:52:01;;;;;;;57.30;2.57;;;17.30;1.00;;;;;;5114483;28;20477;-68
2021/01/21 11:54:27;;;;;;;56.90;2.40;;;17.00;1.00;;;;;;5114145;28;20484;-68
2021/01/21 11:56:54;;;;;;;55.53;2.40;;;16.80;1.00;;;;;;5114243;28;20530;-68
2021/01/21 11:59:21;;;;;;;57.80;2.40;;;16.50;1.00;;;;;;5114651;28;20446;-68
2021/01/21 12:01:48;;;;;;;57.87;2.47;;;16.30;1.00;;;;;;5114213;28;20960;-68
2021/01/21 12:04:15;;;;;;;56.77;2.30;;;16.10;1.00;;;;;;5114241;28;20554;-68
2021/01/21 12:06:41;;;;;;;56.93;2.70;;;15.90;1.00;;;;;;5114242;28;20813;-68
2021/01/21 12:09:08;;;;;;;58.50;2.57;;;15.80;1.00;;;;;;5113904;28;20473;-68
2021/01/21 12:11:34;;;;;;;57.83;2.30;;;15.70;1.00;;;;;;5113304;28;20451;-68
2021/01/21 12:14:01;;;;;;;56.37;3.07;;;15.70;1.00;;;;;;5112296;28;20461;-69
2021/01/21 12:16:28;;;;;;;57.63;2.40;;;15.70;1.00;;;;;;5114275;28;20446;-68
2021/01/21 12:18:55;;;;;;;56.93;2.70;;;15.70;1.00;;;;;;5114271;28;20450;-68
2021/01/21 12:21:22;;;;;;;55.60;2.10;;;15.60;1.00;;;;;;5114044;28;20447;-69
2021/01/21 12:23:48;;;;;;;56.27;2.50;;;15.60;1.00;;;;;;5113852;28;21055;-68
2021/01/21 12:26:16;;;;;;;55.53;2.23;;;15.50;1.00;;;;;;5113878;28;20452;-69
2021/01/21 12:28:42;;;;;;;56.70;2.80;;;15.60;1.00;;;;;;5113808;28;20523;-69
2021/01/21 12:31:09;;;;;;;55.67;2.37;;;15.50;1.00;;;;;;5112907;28;20799;-67
2021/01/21 12:33:36;;;;;;;55.80;2.57;;;15.40;1.00;;;;;;5113753;28;20548;-68
2021/01/21 12:36:03;;;;;;;56.87;2.70;;;15.30;1.00;;;;;;5113988;28;20451;-70
2021/01/21 12:38:29;;;;;;;56.33;2.30;;;15.20;1.00;;;;;;5114888;28;20956;-69
2021/01/21 12:40:56;;;;;;;55.53;2.30;;;15.10;1.00;;;;;;5115562;28;20455;-70
2021/01/21 12:43:23;;;;;;;56.77;2.30;;;15.00;1.00;;;;;;5115279;28;20552;-68
2021/01/21 12:45:50;;;;;;;56.67;2.53;;;15.10;1.00;;;;;;5114545;28;20522;-70
2021/01/21 12:48:16;;;;;;;56.00;2.30;;;15.20;1.00;;;;;;5114565;28;20456;-70
2021/01/21 12:50:44;;;;;;;56.67;2.63;;;15.30;1.00;;;;;;5114924;28;21071;-71
2021/01/21 12:53:10;;;;;;;57.10;2.30;;;15.40;1.00;;;;;;5114434;28;20484;-70
2021/01/21 12:55:37;;;;;;;57.67;2.03;;;15.50;1.00;;;;;;5114582;28;20450;-70
2021/01/21 12:58:04;;;;;;;56.87;2.70;;;15.50;1.00;;;;;;5113947;28;20449;-70
2021/01/21 13:00:31;;;;;;;56.53;2.83;;;15.50;1.00;;;;;;5115390;28;20442;-71